Time,TemperatureF,DewpointF,PressureIn,WindDirection,WindDirectionDegrees,WindSpeedMPH,WindSpeedGustMPH,Humidity,HourlyPrecipIn,Conditions,Clouds,dailyrainin,SoftwareType,DateUTC
2013-07-05 00:43:00,79.0,-99.9,30.18,WSW,250,-999.0,-999.0,-999,0.00,,,-99.99,,2013-07-05 04:43:00,
2013-07-05 01:43:00,78.0,-99.9,30.19,WNW,303,-999.0,3.0,-999,0.00,,,-99.99,,2013-07-05 05:43:00,
2013-07-05 01:52:00,78.0,-99.9,30.19,WNW,303,-999.0,3.0,-999,0.00,,,-99.99,,2013-07-05 05:52:00,
2013-07-05 01:53:00,77.0,-99.9,30.19,SW,220,-999.0,5.0,-999,0.00,,,-99.99,,2013-07-05 05:53:00,
2013-07-05 02:44:00,77.0,-99.9,30.19,SW,220,-999.0,5.0,-999,0.00,,,-99.99,,2013-07-05 06:44:00,
2013-07-05 02:53:00,77.0,-99.9,30.19,SSW,212,-999.0,5.0,-999,0.00,,,-99.99,,2013-07-05 06:53:00,
2013-07-05 03:34:00,77.0,-99.9,30.19,SSW,212,-999.0,5.0,-999,0.00,,,-99.99,,2013-07-05 07:34:00,
2013-07-05 03:43:00,77.0,-99.9,30.19,SSW,212,-999.0,5.0,-999,0.00,,,-99.99,,2013-07-05 07:43:00,
2013-07-05 03:53:00,75.0,-99.9,30.19,South,189,-999.0,-999.0,-999,0.00,,,-99.99,,2013-07-05 07:53:00,
2013-07-05 04:33:00,75.0,-99.9,30.19,South,189,-999.0,-999.0,-999,0.00,,,-99.99,,2013-07-05 08:33:00,
2013-07-05 04:44:00,75.0,-99.9,30.19,South,189,-999.0,-999.0,-999,0.00,,,-99.99,,2013-07-05 08:44:00,
2013-07-05 04:53:00,75.0,-99.9,30.19,SW,218,-999.0,-999.0,-999,0.00,,,-99.99,,2013-07-05 08:53:00,
2013-07-05 05:38:00,75.0,-99.9,30.19,SW,218,-999.0,-999.0,-999,0.00,,,-99.99,,2013-07-05 09:38:00,
2013-07-05 05:48:00,75.0,-99.9,30.19,SW,218,-999.0,-999.0,-999,0.00,,,-99.99,,2013-07-05 09:48:00,
2013-07-05 05:53:00,74.0,-99.9,30.20,SW,218,-999.0,-999.0,-999,0.00,,,-99.99,,2013-07-05 09:53:00,
2013-07-05 06:39:00,74.0,-99.9,30.20,SW,218,-999.0,-999.0,-999,0.00,,,-99.99,,2013-07-05 10:39:00,
2013-07-05 06:48:00,74.0,-99.9,30.20,SW,218,-999.0,-999.0,-999,0.00,,,-99.99,,2013-07-05 10:48:00,
2013-07-05 06:53:00,76.0,-99.9,30.20,SSW,203,4.0,4.0,-999,0.00,,,-99.99,,2013-07-05 10:53:00,
2013-07-05 07:38:00,76.0,-99.9,30.20,SSW,203,4.0,4.0,-999,0.00,,,-99.99,,2013-07-05 11:38:00,
2013-07-05 07:51:00,76.0,-99.9,30.20,SSW,203,4.0,4.0,-999,0.00,,,-99.99,,2013-07-05 11:51:00,
2013-07-05 07:53:00,79.0,-99.9,30.20,SSE,167,2.0,8.0,-999,0.00,,,-99.99,,2013-07-05 11:53:00,
2013-07-05 08:39:00,79.0,-99.9,30.20,SSE,167,2.0,8.0,-999,0.00,,,-99.99,,2013-07-05 12:39:00,
2013-07-05 08:51:00,79.0,-99.9,30.20,SSE,167,2.0,8.0,-999,0.00,,,-99.99,,2013-07-05 12:51:00,
2013-07-05 08:53:00,81.0,-99.9,30.19,West,279,-999.0,6.0,-999,0.00,,,-99.99,,2013-07-05 12:53:00,
2013-07-05 09:50:00,81.0,-99.9,30.19,West,279,-999.0,6.0,-999,0.00,,,-99.99,,2013-07-05 13:50:00,
2013-07-05 09:53:00,82.0,-99.9,30.18,East,89,3.0,8.0,-999,0.00,,,-99.99,,2013-07-05 13:53:00,
2013-07-05 10:40:00,82.0,-99.9,30.18,East,89,3.0,8.0,-999,0.00,,,-99.99,,2013-07-05 14:40:00,
2013-07-05 10:53:00,85.0,-99.9,30.18,ESE,115,-999.0,5.0,-999,0.00,,,-99.99,,2013-07-05 14:53:00,
2013-07-05 11:34:00,85.0,-99.9,30.18,ESE,115,-999.0,5.0,-999,0.00,,,-99.99,,2013-07-05 15:34:00,
2013-07-05 11:43:00,85.0,-99.9,30.18,ESE,115,-999.0,5.0,-999,0.00,,,-99.99,,2013-07-05 15:43:00,
2013-07-05 11:53:00,87.0,-99.9,30.17,WSW,242,3.0,9.0,-999,0.00,,,-99.99,,2013-07-05 15:53:00,
2013-07-05 12:33:00,87.0,-99.9,30.17,WSW,242,3.0,9.0,-999,0.00,,,-99.99,,2013-07-05 16:33:00,
2013-07-05 12:44:00,87.0,-99.9,30.17,WSW,242,3.0,9.0,-999,0.00,,,-99.99,,2013-07-05 16:44:00,
2013-07-05 12:53:00,88.0,-99.9,30.17,WSW,245,6.0,6.0,-999,0.00,,,-99.99,,2013-07-05 16:53:00,
2013-07-05 13:43:00,88.0,-99.9,30.17,WSW,245,6.0,6.0,-999,0.00,,,-99.99,,2013-07-05 17:43:00,
2013-07-05 13:53:00,91.0,-99.9,30.15,SSW,202,3.0,9.0,-999,0.00,,,-99.99,,2013-07-05 17:53:00,
2013-07-05 14:33:00,91.0,-99.9,30.15,SSW,202,3.0,9.0,-999,0.00,,,-99.99,,2013-07-05 18:33:00,
2013-07-05 14:43:00,91.0,-99.9,30.15,SSW,202,3.0,9.0,-999,0.00,,,-99.99,,2013-07-05 18:43:00,
2013-07-05 14:53:00,93.0,-99.9,30.13,SW,218,-999.0,8.0,-999,0.00,,,-99.99,,2013-07-05 18:53:00,
2013-07-05 15:34:00,93.0,-99.9,30.13,SW,218,-999.0,8.0,-999,0.00,,,-99.99,,2013-07-05 19:34:00,
2013-07-05 15:43:00,93.0,-99.9,30.13,SW,218,-999.0,8.0,-999,0.00,,,-99.99,,2013-07-05 19:43:00,
2013-07-05 15:53:00,94.0,-99.9,30.11,NW,305,3.0,9.0,-999,0.00,,,-99.99,,2013-07-05 19:53:00,
2013-07-05 16:33:00,94.0,-99.9,30.11,NW,305,3.0,9.0,-999,0.00,,,-99.99,,2013-07-05 20:33:00,
2013-07-05 16:43:00,94.0,-99.9,30.11,NW,305,3.0,9.0,-999,0.00,,,-99.99,,2013-07-05 20:43:00,
2013-07-05 16:53:00,94.0,-99.9,30.09,WNW,289,6.0,8.0,-999,0.00,,,-99.99,,2013-07-05 20:53:00,
2013-07-05 17:34:00,94.0,-99.9,30.09,WNW,289,6.0,8.0,-999,0.00,,,-99.99,,2013-07-05 21:34:00,
2013-07-05 17:43:00,94.0,-99.9,30.09,WNW,289,6.0,8.0,-999,0.00,,,-99.99,,2013-07-05 21:43:00,
2013-07-05 17:53:00,92.0,-99.9,30.08,WSW,246,2.0,8.0,-999,0.00,,,-99.99,,2013-07-05 21:53:00,
2013-07-05 18:34:00,92.0,-99.9,30.08,WSW,246,2.0,8.0,-999,0.00,,,-99.99,,2013-07-05 22:34:00,
2013-07-05 18:43:00,92.0,-99.9,30.08,WSW,246,2.0,8.0,-999,0.00,,,-99.99,,2013-07-05 22:43:00,
2013-07-05 18:53:00,90.0,-99.9,30.07,SW,232,5.0,10.0,-999,0.00,,,-99.99,,2013-07-05 22:53:00,
2013-07-05 19:32:00,90.0,-99.9,30.07,SW,232,5.0,10.0,-999,0.00,,,-99.99,,2013-07-05 23:32:00,
2013-07-05 19:43:00,90.0,-99.9,30.07,SW,232,5.0,10.0,-999,0.00,,,-99.99,,2013-07-05 23:43:00,
2013-07-05 19:53:00,86.0,-99.9,30.08,SW,230,5.0,10.0,-999,0.00,,,-99.99,,2013-07-05 23:53:00,
2013-07-05 20:33:00,86.0,-99.9,30.08,SW,230,5.0,10.0,-999,0.00,,,-99.99,,2013-07-06 00:33:00,
2013-07-05 20:43:00,86.0,-99.9,30.08,SW,230,5.0,10.0,-999,0.00,,,-99.99,,2013-07-06 00:43:00,
2013-07-05 20:53:00,83.0,-99.9,30.08,SW,223,-999.0,-999.0,-999,0.00,,,-99.99,,2013-07-06 00:53:00,
2013-07-05 21:43:00,83.0,-99.9,30.08,SW,223,-999.0,-999.0,-999,0.00,,,-99.99,,2013-07-06 01:43:00,
2013-07-05 21:53:00,83.0,-99.9,30.12,SW,215,3.0,6.0,-999,0.00,,,-99.99,,2013-07-06 01:53:00,
2013-07-05 22:34:00,83.0,-99.9,30.12,SW,215,3.0,6.0,-999,0.00,,,-99.99,,2013-07-06 02:34:00,
2013-07-05 22:43:00,83.0,-99.9,30.12,SW,215,3.0,6.0,-999,0.00,,,-99.99,,2013-07-06 02:43:00,
2013-07-05 22:53:00,82.0,-99.9,30.12,SW,225,-999.0,-999.0,-999,0.00,,,-99.99,,2013-07-06 02:53:00,
2013-07-05 23:34:00,82.0,-99.9,30.12,SW,225,-999.0,-999.0,-999,0.00,,,-99.99,,2013-07-06 03:34:00,
2013-07-05 23:43:00,82.0,-99.9,30.12,SW,225,-999.0,-999.0,-999,0.00,,,-99.99,,2013-07-06 03:43:00,
2013-07-05 23:53:00,80.0,-99.9,30.12,SW,225,-999.0,-999.0,-999,0.00,,,-99.99,,2013-07-06 03:53:00,